sensor_id;sensor_type;location;lat;lon;timestamp;pressure;altitude;pressure_sealevel;temperature;humidity
37068;BME280;22982;42.848;25.468;2023-02-01T00:04:36;96201.03;;;0.59;100.00
37068;BME280;22982;42.848;25.468;2023-02-01T00:09:38;96194.13;;;0.61;100.00
37068;BME280;22982;42.848;25.468;2023-02-01T00:14:41;96206.03;;;0.66;100.00
37068;BME280;22982;42.848;25.468;2023-02-01T00:19:43;96201.88;;;0.59;100.00
37068;BME280;22982;42.848;25.468;2023-02-01T00:24:45;96200.84;;;0.68;100.00
37068;BME280;22982;42.848;25.468;2023-02-01T00:29:48;96213.94;;;0.59;100.00
37068;BME280;22982;42.848;25.468;2023-02-01T00:34:50;96205.25;;;0.63;100.00
37068;BME280;22982;42.848;25.468;2023-02-01T00:39:53;96203.22;;;0.75;100.00
37068;BME280;22982;42.848;25.468;2023-02-01T00:44:57;96198.25;;;0.68;100.00
37068;BME280;22982;42.848;25.468;2023-02-01T00:49:59;96206.81;;;0.70;100.00
37068;BME280;22982;42.848;25.468;2023-02-01T00:55:02;96197.28;;;0.72;100.00
37068;BME280;22982;42.848;25.468;2023-02-01T01:00:05;96201.34;;;0.45;100.00
37068;BME280;22982;42.848;25.468;2023-02-01T01:05:08;96201.72;;;0.67;100.00
37068;BME280;22982;42.848;25.468;2023-02-01T01:10:11;96206.69;;;0.76;100.00
37068;BME280;22982;42.848;25.468;2023-02-01T01:15:13;96201.63;;;0.71;100.00
37068;BME280;22982;42.848;25.468;2023-02-01T01:20:16;96206.47;;;0.85;100.00
37068;BME280;22982;42.848;25.468;2023-02-01T01:25:18;96198.53;;;0.93;100.00
37068;BME280;22982;42.848;25.468;2023-02-01T01:30:21;96213.91;;;0.98;100.00
37068;BME280;22982;42.848;25.468;2023-02-01T01:35:24;96201.69;;;0.68;100.00
37068;BME280;22982;42.848;25.468;2023-02-01T01:40:27;96206.59;;;0.79;100.00
37068;BME280;22982;42.848;25.468;2023-02-01T01:45:35;96223.59;;;0.89;100.00
37068;BME280;22982;42.848;25.468;2023-02-01T01:51:10;96225.59;;;0.76;100.00
37068;BME280;22982;42.848;25.468;2023-02-01T01:56:14;96219.06;;;0.62;100.00
37068;BME280;22982;42.848;25.468;2023-02-01T02:01:17;96219.50;;;0.79;100.00
37068;BME280;22982;42.848;25.468;2023-02-01T02:11:40;96211.22;;;0.65;100.00
37068;BME280;22982;42.848;25.468;2023-02-01T02:22:27;96224.81;;;0.73;100.00
37068;BME280;22982;42.848;25.468;2023-02-01T02:33:30;96227.66;;;0.61;100.00
37068;BME280;22982;42.848;25.468;2023-02-01T02:43:58;96240.72;;;0.53;100.00
37068;BME280;22982;42.848;25.468;2023-02-01T02:49:29;96248.63;;;0.45;100.00
37068;BME280;22982;42.848;25.468;2023-02-01T02:54:41;96254.41;;;0.56;100.00
37068;BME280;22982;42.848;25.468;2023-02-01T02:59:50;96235.53;;;0.54;100.00
37068;BME280;22982;42.848;25.468;2023-02-01T03:05:11;96255.03;;;0.68;98.25
37068;BME280;22982;42.848;25.468;2023-02-01T03:10:22;96249.00;;;0.69;97.99
37068;BME280;22982;42.848;25.468;2023-02-01T03:15:51;96247.44;;;0.62;98.05
37068;BME280;22982;42.848;25.468;2023-02-01T03:20:57;96230.25;;;0.59;96.83
37068;BME280;22982;42.848;25.468;2023-02-01T03:26:02;96250.66;;;0.71;96.99
37068;BME280;22982;42.848;25.468;2023-02-01T03:31:06;96218.41;;;0.50;95.91
37068;BME280;22982;42.848;25.468;2023-02-01T03:36:25;96241.13;;;0.73;95.47
37068;BME280;22982;42.848;25.468;2023-02-01T03:41:37;96240.81;;;0.89;95.19
37068;BME280;22982;42.848;25.468;2023-02-01T03:47:04;96240.59;;;0.98;97.05
37068;BME280;22982;42.848;25.468;2023-02-01T03:52:13;96220.66;;;0.66;96.28
37068;BME280;22982;42.848;25.468;2023-02-01T03:57:24;96224.31;;;0.55;97.40
37068;BME280;22982;42.848;25.468;2023-02-01T04:02:28;96227.69;;;0.59;95.73
37068;BME280;22982;42.848;25.468;2023-02-01T04:07:31;96219.84;;;0.64;94.32
37068;BME280;22982;42.848;25.468;2023-02-01T04:12:33;96236.47;;;0.50;93.25
37068;BME280;22982;42.848;25.468;2023-02-01T04:17:36;96247.44;;;0.62;94.40
37068;BME280;22982;42.848;25.468;2023-02-01T04:22:36;96257.91;;;0.52;93.64
37068;BME280;22982;42.848;25.468;2023-02-01T04:27:39;96249.16;;;0.60;91.75
37068;BME280;22982;42.848;25.468;2023-02-01T04:32:44;96251.81;;;0.58;91.82
37068;BME280;22982;42.848;25.468;2023-02-01T04:54:59;96245.34;;;1.51;88.88
37068;BME280;22982;42.848;25.468;2023-02-01T05:00:03;96260.78;;;1.18;90.16
37068;BME280;22982;42.848;25.468;2023-02-01T05:05:06;96262.25;;;0.92;89.49
37068;BME280;22982;42.848;25.468;2023-02-01T05:10:08;96246.50;;;0.64;90.57
37068;BME280;22982;42.848;25.468;2023-02-01T05:15:10;96250.25;;;0.51;90.80
37068;BME280;22982;42.848;25.468;2023-02-01T05:20:12;96244.97;;;0.13;91.80
37068;BME280;22982;42.848;25.468;2023-02-01T05:25:15;96248.88;;;0.33;92.32
37068;BME280;22982;42.848;25.468;2023-02-01T05:30:17;96255.31;;;0.54;91.16
37068;BME280;22982;42.848;25.468;2023-02-01T05:35:19;96253.47;;;0.18;92.38
37068;BME280;22982;42.848;25.468;2023-02-01T05:40:23;96256.09;;;0.15;92.45
37068;BME280;22982;42.848;25.468;2023-02-01T05:45:25;96256.03;;;0.20;92.25
37068;BME280;22982;42.848;25.468;2023-02-01T05:50:27;96276.81;;;0.54;90.91
37068;BME280;22982;42.848;25.468;2023-02-01T05:55:32;96269.69;;;0.66;90.55
37068;BME280;22982;42.848;25.468;2023-02-01T06:00:34;96268.06;;;0.62;89.45
37068;BME280;22982;42.848;25.468;2023-02-01T06:05:36;96285.13;;;0.69;92.61
37068;BME280;22982;42.848;25.468;2023-02-01T06:10:39;96283.41;;;0.68;89.47
37068;BME280;22982;42.848;25.468;2023-02-01T06:15:41;96273.69;;;0.40;90.00
37068;BME280;22982;42.848;25.468;2023-02-01T06:20:57;96280.03;;;0.66;90.20
37068;BME280;22982;42.848;25.468;2023-02-01T06:26:04;96277.72;;;0.92;90.18
37068;BME280;22982;42.848;25.468;2023-02-01T06:31:07;96301.50;;;1.07;88.42
37068;BME280;22982;42.848;25.468;2023-02-01T06:36:10;96289.41;;;1.09;88.54
37068;BME280;22982;42.848;25.468;2023-02-01T06:41:14;96282.59;;;1.05;88.59
37068;BME280;22982;42.848;25.468;2023-02-01T06:46:17;96274.50;;;1.20;90.51
37068;BME280;22982;42.848;25.468;2023-02-01T06:51:24;96301.13;;;1.24;90.17
37068;BME280;22982;42.848;25.468;2023-02-01T06:56:27;96307.75;;;1.36;89.43
37068;BME280;22982;42.848;25.468;2023-02-01T07:01:30;96281.53;;;1.13;90.05
37068;BME280;22982;42.848;25.468;2023-02-01T07:06:32;96283.78;;;1.29;87.08
37068;BME280;22982;42.848;25.468;2023-02-01T07:11:34;96297.88;;;1.51;87.49
37068;BME280;22982;42.848;25.468;2023-02-01T07:16:36;96304.28;;;1.71;86.82
37068;BME280;22982;42.848;25.468;2023-02-01T07:21:39;96298.28;;;1.70;86.67
37068;BME280;22982;42.848;25.468;2023-02-01T07:26:41;96292.66;;;1.89;85.17
37068;BME280;22982;42.848;25.468;2023-02-01T07:31:43;96301.75;;;1.69;84.23
37068;BME280;22982;42.848;25.468;2023-02-01T07:36:45;96306.53;;;1.85;85.55
37068;BME280;22982;42.848;25.468;2023-02-01T07:41:48;96323.91;;;1.80;86.42
37068;BME280;22982;42.848;25.468;2023-02-01T07:46:50;96322.19;;;2.13;85.38
37068;BME280;22982;42.848;25.468;2023-02-01T07:51:52;96310.59;;;2.28;83.37
37068;BME280;22982;42.848;25.468;2023-02-01T07:56:55;96326.31;;;2.53;83.44
37068;BME280;22982;42.848;25.468;2023-02-01T08:01:57;96313.28;;;2.86;82.28
37068;BME280;22982;42.848;25.468;2023-02-01T08:07:00;96312.69;;;2.76;82.23
37068;BME280;22982;42.848;25.468;2023-02-01T08:12:02;96305.03;;;2.73;81.97
37068;BME280;22982;42.848;25.468;2023-02-01T08:17:04;96314.28;;;2.51;82.76
37068;BME280;22982;42.848;25.468;2023-02-01T08:22:06;96321.69;;;2.33;84.75
37068;BME280;22982;42.848;25.468;2023-02-01T08:27:09;96329.78;;;2.52;83.17
37068;BME280;22982;42.848;25.468;2023-02-01T08:32:11;96316.34;;;2.06;84.40
37068;BME280;22982;42.848;25.468;2023-02-01T08:37:13;96312.91;;;2.68;85.38
37068;BME280;22982;42.848;25.468;2023-02-01T08:42:16;96307.28;;;3.14;82.07
37068;BME280;22982;42.848;25.468;2023-02-01T08:47:37;96316.97;;;3.63;79.70
37068;BME280;22982;42.848;25.468;2023-02-01T08:52:39;96315.13;;;3.40;79.70
37068;BME280;22982;42.848;25.468;2023-02-01T08:57:41;96321.44;;;3.32;81.58
37068;BME280;22982;42.848;25.468;2023-02-01T09:02:44;96332.00;;;3.25;81.74
37068;BME280;22982;42.848;25.468;2023-02-01T09:07:46;96310.38;;;3.25;82.16
37068;BME280;22982;42.848;25.468;2023-02-01T09:12:49;96329.97;;;3.35;81.80
37068;BME280;22982;42.848;25.468;2023-02-01T09:17:51;96321.13;;;3.69;81.14
37068;BME280;22982;42.848;25.468;2023-02-01T09:22:55;96314.28;;;3.40;81.13
37068;BME280;22982;42.848;25.468;2023-02-01T09:27:57;96301.22;;;3.96;78.60
37068;BME280;22982;42.848;25.468;2023-02-01T09:32:59;96293.63;;;3.37;79.90
37068;BME280;22982;42.848;25.468;2023-02-01T09:38:02;96276.47;;;3.33;80.21
37068;BME280;22982;42.848;25.468;2023-02-01T09:48:17;96284.69;;;4.95;73.98
37068;BME280;22982;42.848;25.468;2023-02-01T09:53:34;96258.63;;;6.46;64.42
37068;BME280;22982;42.848;25.468;2023-02-01T09:58:42;96265.25;;;5.92;67.30
37068;BME280;22982;42.848;25.468;2023-02-01T10:03:46;96251.56;;;5.46;69.81
37068;BME280;22982;42.848;25.468;2023-02-01T10:14:50;96248.22;;;6.84;64.68
37068;BME280;22982;42.848;25.468;2023-02-01T10:25:21;96203.78;;;10.32;50.55
37068;BME280;22982;42.848;25.468;2023-02-01T10:30:35;96189.16;;;12.07;44.70
37068;BME280;22982;42.848;25.468;2023-02-01T10:35:44;96184.31;;;11.07;44.34
37068;BME280;22982;42.848;25.468;2023-02-01T10:40:47;96159.19;;;12.10;41.98
37068;BME280;22982;42.848;25.468;2023-02-01T10:45:49;96162.03;;;12.33;42.22
37068;BME280;22982;42.848;25.468;2023-02-01T10:51:06;96138.56;;;11.11;44.09
37068;BME280;22982;42.848;25.468;2023-02-01T10:56:10;96151.59;;;10.28;45.80
37068;BME280;22982;42.848;25.468;2023-02-01T11:01:18;96160.25;;;8.78;49.84
37068;BME280;22982;42.848;25.468;2023-02-01T11:27:33;96111.13;;;8.99;49.31
37068;BME280;22982;42.848;25.468;2023-02-01T11:32:46;96113.31;;;7.61;52.59
37068;BME280;22982;42.848;25.468;2023-02-01T11:37:55;96122.66;;;7.47;54.22
37068;BME280;22982;42.848;25.468;2023-02-01T11:48:10;96117.44;;;7.47;54.22
37068;BME280;22982;42.848;25.468;2023-02-01T12:30:47;96109.16;;;6.30;58.62
37068;BME280;22982;42.848;25.468;2023-02-01T12:41:17;96109.38;;;6.63;57.36
37068;BME280;22982;42.848;25.468;2023-02-01T12:51:43;96101.06;;;6.55;59.14
37068;BME280;22982;42.848;25.468;2023-02-01T12:57:11;96093.31;;;6.90;57.85
37068;BME280;22982;42.848;25.468;2023-02-01T13:07:31;96080.97;;;6.76;57.06
37068;BME280;22982;42.848;25.468;2023-02-01T13:12:45;96085.94;;;6.63;56.77
37068;BME280;22982;42.848;25.468;2023-02-01T13:17:52;96105.00;;;6.45;58.46
37068;BME280;22982;42.848;25.468;2023-02-01T13:23:04;96094.44;;;5.91;59.99
37068;BME280;22982;42.848;25.468;2023-02-01T13:28:16;96107.13;;;6.37;59.43
37068;BME280;22982;42.848;25.468;2023-02-01T13:44:16;96085.38;;;6.00;59.64
37068;BME280;22982;42.848;25.468;2023-02-01T13:49:27;96090.59;;;5.79;61.96
37068;BME280;22982;42.848;25.468;2023-02-01T13:54:37;96108.78;;;5.60;61.82
37068;BME280;22982;42.848;25.468;2023-02-01T14:04:48;96092.47;;;5.36;63.99
37068;BME280;22982;42.848;25.468;2023-02-01T14:09:50;96078.28;;;5.43;63.21
37068;BME280;22982;42.848;25.468;2023-02-01T14:15:23;96088.16;;;5.55;62.69
37068;BME280;22982;42.848;25.468;2023-02-01T14:20:46;96088.06;;;5.78;62.51
37068;BME280;22982;42.848;25.468;2023-02-01T14:47:29;96098.28;;;5.62;59.15
37068;BME280;22982;42.848;25.468;2023-02-01T14:52:46;96093.69;;;5.27;59.93
37068;BME280;22982;42.848;25.468;2023-02-01T14:57:50;96106.13;;;5.21;61.23
37068;BME280;22982;42.848;25.468;2023-02-01T15:08:38;96119.28;;;4.95;63.37
37068;BME280;22982;42.848;25.468;2023-02-01T15:13:48;96132.41;;;4.70;64.28
37068;BME280;22982;42.848;25.468;2023-02-01T15:19:08;96135.47;;;4.58;64.45
37068;BME280;22982;42.848;25.468;2023-02-01T15:24:14;96147.59;;;4.57;63.39
37068;BME280;22982;42.848;25.468;2023-02-01T15:29:17;96149.34;;;4.57;62.73
37068;BME280;22982;42.848;25.468;2023-02-01T15:34:20;96150.47;;;4.50;63.35
37068;BME280;22982;42.848;25.468;2023-02-01T15:39:24;96134.69;;;4.56;62.56
37068;BME280;22982;42.848;25.468;2023-02-01T15:44:38;96142.88;;;4.45;62.32
37068;BME280;22982;42.848;25.468;2023-02-01T15:49:47;96140.41;;;4.18;61.96
37068;BME280;22982;42.848;25.468;2023-02-01T15:54:55;96146.34;;;3.98;62.65
37068;BME280;22982;42.848;25.468;2023-02-01T16:05:42;96162.69;;;4.00;61.51
37068;BME280;22982;42.848;25.468;2023-02-01T16:10:47;96165.56;;;3.93;60.97
37068;BME280;22982;42.848;25.468;2023-02-01T16:15:50;96162.72;;;3.75;61.40
37068;BME280;22982;42.848;25.468;2023-02-01T16:20:53;96169.44;;;3.81;60.90
37068;BME280;22982;42.848;25.468;2023-02-01T16:25:55;96129.28;;;3.68;64.94
37068;BME280;22982;42.848;25.468;2023-02-01T16:30:57;96158.28;;;4.02;73.84
37068;BME280;22982;42.848;25.468;2023-02-01T16:35:59;96170.88;;;4.13;66.50
37068;BME280;22982;42.848;25.468;2023-02-01T16:41:04;96156.63;;;4.01;81.61
37068;BME280;22982;42.848;25.468;2023-02-01T16:46:13;96162.75;;;3.99;73.96
37068;BME280;22982;42.848;25.468;2023-02-01T16:51:17;96154.47;;;4.13;90.72
37068;BME280;22982;42.848;25.468;2023-02-01T16:56:28;96150.56;;;4.01;85.70
37068;BME280;22982;42.848;25.468;2023-02-01T17:01:31;96158.25;;;3.79;93.72
37068;BME280;22982;42.848;25.468;2023-02-01T17:06:34;96154.69;;;3.58;68.15
37068;BME280;22982;42.848;25.468;2023-02-01T17:11:41;96147.34;;;3.19;72.22
37068;BME280;22982;42.848;25.468;2023-02-01T17:16:45;96150.91;;;3.16;67.89
37068;BME280;22982;42.848;25.468;2023-02-01T17:21:51;96153.38;;;3.19;75.36
37068;BME280;22982;42.848;25.468;2023-02-01T17:26:56;96160.84;;;3.29;69.99
37068;BME280;22982;42.848;25.468;2023-02-01T17:31:58;96138.41;;;3.02;68.45
37068;BME280;22982;42.848;25.468;2023-02-01T17:37:08;96153.19;;;2.99;65.97
37068;BME280;22982;42.848;25.468;2023-02-01T17:42:17;96147.00;;;3.03;64.64
37068;BME280;22982;42.848;25.468;2023-02-01T17:47:19;96154.16;;;3.21;66.01
37068;BME280;22982;42.848;25.468;2023-02-01T17:52:23;96159.06;;;3.31;64.52
37068;BME280;22982;42.848;25.468;2023-02-01T17:57:26;96160.25;;;3.20;64.77
37068;BME280;22982;42.848;25.468;2023-02-01T18:02:29;96161.81;;;3.26;65.75
37068;BME280;22982;42.848;25.468;2023-02-01T18:07:31;96171.38;;;3.24;64.67
37068;BME280;22982;42.848;25.468;2023-02-01T18:12:33;96159.69;;;3.11;66.15
37068;BME280;22982;42.848;25.468;2023-02-01T18:17:38;96167.53;;;3.09;65.61
37068;BME280;22982;42.848;25.468;2023-02-01T18:22:41;96179.66;;;3.07;65.99
37068;BME280;22982;42.848;25.468;2023-02-01T18:27:44;96180.59;;;3.06;63.71
37068;BME280;22982;42.848;25.468;2023-02-01T18:32:47;96197.28;;;3.24;63.98
37068;BME280;22982;42.848;25.468;2023-02-01T18:37:51;96188.69;;;3.23;64.13
37068;BME280;22982;42.848;25.468;2023-02-01T18:42:54;96170.81;;;3.14;63.49
37068;BME280;22982;42.848;25.468;2023-02-01T18:47:58;96196.09;;;3.34;63.26
37068;BME280;22982;42.848;25.468;2023-02-01T18:53:05;96193.78;;;3.25;64.20
37068;BME280;22982;42.848;25.468;2023-02-01T18:58:15;96203.47;;;3.20;67.88
37068;BME280;22982;42.848;25.468;2023-02-01T19:03:18;96182.75;;;2.63;71.35
37068;BME280;22982;42.848;25.468;2023-02-01T19:08:21;96171.41;;;2.09;77.36
37068;BME280;22982;42.848;25.468;2023-02-01T19:13:25;96165.94;;;1.89;80.16
37068;BME280;22982;42.848;25.468;2023-02-01T19:18:32;96168.44;;;1.61;82.67
37068;BME280;22982;42.848;25.468;2023-02-01T19:23:37;96205.66;;;1.19;85.62
37068;BME280;22982;42.848;25.468;2023-02-01T19:28:40;96173.28;;;1.06;86.76
37068;BME280;22982;42.848;25.468;2023-02-01T19:33:45;96178.25;;;1.13;86.83
37068;BME280;22982;42.848;25.468;2023-02-01T19:38:48;96178.66;;;0.97;87.87
37068;BME280;22982;42.848;25.468;2023-02-01T19:43:50;96177.69;;;0.63;89.39
37068;BME280;22982;42.848;25.468;2023-02-01T19:48:52;96174.41;;;0.58;90.97
37068;BME280;22982;42.848;25.468;2023-02-01T19:53:55;96174.72;;;0.43;91.75
37068;BME280;22982;42.848;25.468;2023-02-01T19:58:57;96171.28;;;0.44;92.32
37068;BME280;22982;42.848;25.468;2023-02-01T20:04:00;96187.66;;;0.41;92.79
37068;BME280;22982;42.848;25.468;2023-02-01T20:09:07;96188.25;;;0.13;94.03
37068;BME280;22982;42.848;25.468;2023-02-01T20:14:09;96197.41;;;-0.15;95.65
37068;BME280;22982;42.848;25.468;2023-02-01T20:19:12;96186.75;;;-0.42;98.28
37068;BME280;22982;42.848;25.468;2023-02-01T20:24:16;96190.69;;;-0.71;100.00
37068;BME280;22982;42.848;25.468;2023-02-01T20:29:19;96182.78;;;-0.62;100.00
37068;BME280;22982;42.848;25.468;2023-02-01T20:34:21;96183.03;;;-0.74;100.00
37068;BME280;22982;42.848;25.468;2023-02-01T20:39:24;96188.91;;;-0.69;100.00
37068;BME280;22982;42.848;25.468;2023-02-01T20:44:26;96201.41;;;-0.95;100.00
37068;BME280;22982;42.848;25.468;2023-02-01T20:49:29;96208.19;;;-0.91;100.00
37068;BME280;22982;42.848;25.468;2023-02-01T20:54:31;96191.06;;;-0.94;100.00
37068;BME280;22982;42.848;25.468;2023-02-01T20:59:33;96191.81;;;-0.87;100.00
37068;BME280;22982;42.848;25.468;2023-02-01T21:04:36;96192.91;;;-1.01;100.00
37068;BME280;22982;42.848;25.468;2023-02-01T21:09:38;96182.44;;;-0.90;100.00
37068;BME280;22982;42.848;25.468;2023-02-01T21:14:42;96187.56;;;-0.88;100.00
37068;BME280;22982;42.848;25.468;2023-02-01T21:19:44;96194.31;;;-0.81;100.00
37068;BME280;22982;42.848;25.468;2023-02-01T21:24:46;96193.31;;;-0.74;100.00
37068;BME280;22982;42.848;25.468;2023-02-01T21:29:49;96181.53;;;-0.87;100.00
37068;BME280;22982;42.848;25.468;2023-02-01T21:34:51;96188.91;;;-0.67;100.00
37068;BME280;22982;42.848;25.468;2023-02-01T21:39:53;96194.00;;;-0.64;100.00
37068;BME280;22982;42.848;25.468;2023-02-01T21:44:57;96193.16;;;-0.65;100.00
37068;BME280;22982;42.848;25.468;2023-02-01T21:50:00;96174.53;;;-0.79;100.00
37068;BME280;22982;42.848;25.468;2023-02-01T21:55:03;96193.50;;;-0.85;100.00
37068;BME280;22982;42.848;25.468;2023-02-01T22:00:07;96182.28;;;-0.81;100.00
37068;BME280;22982;42.848;25.468;2023-02-01T22:05:10;96160.28;;;-1.00;100.00
37068;BME280;22982;42.848;25.468;2023-02-01T22:10:12;96175.94;;;-1.14;100.00
37068;BME280;22982;42.848;25.468;2023-02-01T22:15:14;96160.78;;;-1.31;100.00
37068;BME280;22982;42.848;25.468;2023-02-01T22:20:17;96150.44;;;-1.26;100.00
37068;BME280;22982;42.848;25.468;2023-02-01T22:25:19;96121.69;;;-1.53;100.00
37068;BME280;22982;42.848;25.468;2023-02-01T22:30:21;96166.63;;;-1.21;100.00
37068;BME280;22982;42.848;25.468;2023-02-01T22:35:23;96147.91;;;-1.29;100.00
37068;BME280;22982;42.848;25.468;2023-02-01T22:40:26;96162.84;;;-0.99;100.00
37068;BME280;22982;42.848;25.468;2023-02-01T22:45:28;96144.09;;;-1.07;100.00
37068;BME280;22982;42.848;25.468;2023-02-01T22:50:31;96146.63;;;-1.04;100.00
37068;BME280;22982;42.848;25.468;2023-02-01T22:55:34;96142.72;;;-1.26;100.00
37068;BME280;22982;42.848;25.468;2023-02-01T23:00:37;96158.66;;;-1.60;100.00
37068;BME280;22982;42.848;25.468;2023-02-01T23:05:39;96153.38;;;-1.52;100.00
37068;BME280;22982;42.848;25.468;2023-02-01T23:10:41;96170.31;;;-1.38;100.00
37068;BME280;22982;42.848;25.468;2023-02-01T23:15:43;96176.16;;;-1.26;100.00
37068;BME280;22982;42.848;25.468;2023-02-01T23:20:45;96170.09;;;-1.24;100.00
37068;BME280;22982;42.848;25.468;2023-02-01T23:25:49;96168.47;;;-1.28;100.00
37068;BME280;22982;42.848;25.468;2023-02-01T23:30:52;96159.84;;;-1.25;100.00
37068;BME280;22982;42.848;25.468;2023-02-01T23:35:56;96172.97;;;-1.44;100.00
37068;BME280;22982;42.848;25.468;2023-02-01T23:41:02;96181.06;;;-1.12;100.00
37068;BME280;22982;42.848;25.468;2023-02-01T23:46:05;96173.69;;;-1.36;100.00
37068;BME280;22982;42.848;25.468;2023-02-01T23:51:07;96172.72;;;-1.27;100.00
37068;BME280;22982;42.848;25.468;2023-02-01T23:56:28;96186.31;;;-1.19;100.00
